sensor_id;sensor_type;location;lat;lon;timestamp;temperature;humidity
2749;DHT22;1382;52.142;11.618;2022-10-18T00:00:42;22.60;58.80
2749;DHT22;1382;52.142;11.618;2022-10-18T00:03:09;22.70;58.80
2749;DHT22;1382;52.142;11.618;2022-10-18T00:05:36;22.60;58.70
2749;DHT22;1382;52.142;11.618;2022-10-18T00:08:03;22.50;58.60
2749;DHT22;1382;52.142;11.618;2022-10-18T00:10:31;22.50;58.50
2749;DHT22;1382;52.142;11.618;2022-10-18T00:12:58;22.50;58.50
2749;DHT22;1382;52.142;11.618;2022-10-18T00:15:24;22.50;59.10
2749;DHT22;1382;52.142;11.618;2022-10-18T00:17:51;22.50;59.10
2749;DHT22;1382;52.142;11.618;2022-10-18T00:20:18;22.50;59.10
2749;DHT22;1382;52.142;11.618;2022-10-18T00:22:45;22.50;59.70
2749;DHT22;1382;52.142;11.618;2022-10-18T00:25:13;22.40;59.50
2749;DHT22;1382;52.142;11.618;2022-10-18T00:27:42;22.60;59.90
2749;DHT22;1382;52.142;11.618;2022-10-18T00:30:09;22.40;59.40
2749;DHT22;1382;52.142;11.618;2022-10-18T00:32:36;22.40;59.50
2749;DHT22;1382;52.142;11.618;2022-10-18T00:35:04;22.40;60.10
2749;DHT22;1382;52.142;11.618;2022-10-18T00:37:32;22.30;60.00
2749;DHT22;1382;52.142;11.618;2022-10-18T00:39:58;22.30;60.10
2749;DHT22;1382;52.142;11.618;2022-10-18T00:42:29;22.30;60.60
2749;DHT22;1382;52.142;11.618;2022-10-18T00:45:11;22.30;60.80
2749;DHT22;1382;52.142;11.618;2022-10-18T00:47:38;22.30;60.60
2749;DHT22;1382;52.142;11.618;2022-10-18T00:50:07;22.30;60.80
2749;DHT22;1382;52.142;11.618;2022-10-18T00:52:36;22.30;60.70
2749;DHT22;1382;52.142;11.618;2022-10-18T00:55:05;22.20;61.20
2749;DHT22;1382;52.142;11.618;2022-10-18T00:57:33;22.20;61.20
2749;DHT22;1382;52.142;11.618;2022-10-18T01:00:02;22.20;60.80
2749;DHT22;1382;52.142;11.618;2022-10-18T01:02:31;22.20;60.90
2749;DHT22;1382;52.142;11.618;2022-10-18T01:04:58;22.30;60.80
2749;DHT22;1382;52.142;11.618;2022-10-18T01:07:37;22.20;60.70
2749;DHT22;1382;52.142;11.618;2022-10-18T01:10:18;22.20;60.60
2749;DHT22;1382;52.142;11.618;2022-10-18T01:12:55;22.20;61.80
2749;DHT22;1382;52.142;11.618;2022-10-18T01:15:30;22.10;61.00
2749;DHT22;1382;52.142;11.618;2022-10-18T01:18:05;22.10;61.20
2749;DHT22;1382;52.142;11.618;2022-10-18T01:20:56;22.10;61.10
2749;DHT22;1382;52.142;11.618;2022-10-18T01:23:56;22.10;60.50
2749;DHT22;1382;52.142;11.618;2022-10-18T01:26:38;22.10;61.60
2749;DHT22;1382;52.142;11.618;2022-10-18T01:29:18;22.00;62.00
2749;DHT22;1382;52.142;11.618;2022-10-18T01:31:50;22.00;62.70
2749;DHT22;1382;52.142;11.618;2022-10-18T01:34:25;21.90;62.20
2749;DHT22;1382;52.142;11.618;2022-10-18T01:36:54;22.00;61.80
2749;DHT22;1382;52.142;11.618;2022-10-18T01:39:25;22.10;62.10
2749;DHT22;1382;52.142;11.618;2022-10-18T01:41:54;21.90;61.60
2749;DHT22;1382;52.142;11.618;2022-10-18T01:44:24;22.10;62.10
2749;DHT22;1382;52.142;11.618;2022-10-18T01:46:54;21.90;60.80
2749;DHT22;1382;52.142;11.618;2022-10-18T01:49:21;21.90;60.30
2749;DHT22;1382;52.142;11.618;2022-10-18T01:51:49;22.00;60.30
2749;DHT22;1382;52.142;11.618;2022-10-18T01:54:20;21.90;60.20
2749;DHT22;1382;52.142;11.618;2022-10-18T01:56:55;21.90;60.70
2749;DHT22;1382;52.142;11.618;2022-10-18T01:59:32;21.90;60.70
2749;DHT22;1382;52.142;11.618;2022-10-18T02:02:08;22.00;60.80
2749;DHT22;1382;52.142;11.618;2022-10-18T02:04:43;22.00;60.10
2749;DHT22;1382;52.142;11.618;2022-10-18T02:07:16;21.80;59.80
2749;DHT22;1382;52.142;11.618;2022-10-18T02:09:50;21.80;59.70
2749;DHT22;1382;52.142;11.618;2022-10-18T02:12:20;21.80;59.30
2749;DHT22;1382;52.142;11.618;2022-10-18T02:14:48;21.80;59.30
2749;DHT22;1382;52.142;11.618;2022-10-18T02:17:17;21.90;59.20
2749;DHT22;1382;52.142;11.618;2022-10-18T02:19:47;21.90;59.40
2749;DHT22;1382;52.142;11.618;2022-10-18T02:22:16;21.80;59.60
2749;DHT22;1382;52.142;11.618;2022-10-18T02:24:47;21.90;59.80
2749;DHT22;1382;52.142;11.618;2022-10-18T02:27:15;21.80;60.00
2749;DHT22;1382;52.142;11.618;2022-10-18T02:29:42;21.80;59.70
2749;DHT22;1382;52.142;11.618;2022-10-18T02:32:14;21.80;59.80
2749;DHT22;1382;52.142;11.618;2022-10-18T02:34:46;21.70;59.50
2749;DHT22;1382;52.142;11.618;2022-10-18T02:37:15;21.70;59.40
2749;DHT22;1382;52.142;11.618;2022-10-18T02:39:44;21.70;59.80
2749;DHT22;1382;52.142;11.618;2022-10-18T02:42:13;21.70;59.30
2749;DHT22;1382;52.142;11.618;2022-10-18T02:44:40;21.70;59.10
2749;DHT22;1382;52.142;11.618;2022-10-18T02:47:08;21.70;58.90
2749;DHT22;1382;52.142;11.618;2022-10-18T02:49:35;21.60;58.70
2749;DHT22;1382;52.142;11.618;2022-10-18T02:52:03;21.60;58.50
2749;DHT22;1382;52.142;11.618;2022-10-18T02:54:30;21.60;58.50
2749;DHT22;1382;52.142;11.618;2022-10-18T02:56:57;21.70;58.30
2749;DHT22;1382;52.142;11.618;2022-10-18T02:59:24;21.60;58.00
2749;DHT22;1382;52.142;11.618;2022-10-18T03:01:50;21.60;58.10
2749;DHT22;1382;52.142;11.618;2022-10-18T03:04:17;21.60;58.30
2749;DHT22;1382;52.142;11.618;2022-10-18T03:06:44;21.60;58.00
2749;DHT22;1382;52.142;11.618;2022-10-18T03:09:12;21.50;57.70
2749;DHT22;1382;52.142;11.618;2022-10-18T03:11:39;21.60;57.80
2749;DHT22;1382;52.142;11.618;2022-10-18T03:14:06;21.50;57.40
2749;DHT22;1382;52.142;11.618;2022-10-18T03:16:33;21.50;57.20
2749;DHT22;1382;52.142;11.618;2022-10-18T03:19:00;21.50;57.10
2749;DHT22;1382;52.142;11.618;2022-10-18T03:21:26;21.50;57.00
2749;DHT22;1382;52.142;11.618;2022-10-18T03:23:54;21.50;57.10
2749;DHT22;1382;52.142;11.618;2022-10-18T03:26:22;21.50;57.20
2749;DHT22;1382;52.142;11.618;2022-10-18T03:28:49;21.60;57.40
2749;DHT22;1382;52.142;11.618;2022-10-18T03:31:16;21.40;57.00
2749;DHT22;1382;52.142;11.618;2022-10-18T03:33:43;21.40;56.90
2749;DHT22;1382;52.142;11.618;2022-10-18T03:36:09;21.40;57.00
2749;DHT22;1382;52.142;11.618;2022-10-18T03:38:36;21.40;57.10
2749;DHT22;1382;52.142;11.618;2022-10-18T03:41:03;21.40;57.20
2749;DHT22;1382;52.142;11.618;2022-10-18T03:43:31;21.30;57.10
2749;DHT22;1382;52.142;11.618;2022-10-18T03:45:59;21.40;57.10
2749;DHT22;1382;52.142;11.618;2022-10-18T03:48:26;21.30;57.00
2749;DHT22;1382;52.142;11.618;2022-10-18T03:50:52;21.30;56.80
2749;DHT22;1382;52.142;11.618;2022-10-18T03:53:19;21.30;56.70
2749;DHT22;1382;52.142;11.618;2022-10-18T03:55:50;21.20;56.70
2749;DHT22;1382;52.142;11.618;2022-10-18T03:58:16;21.20;56.90
2749;DHT22;1382;52.142;11.618;2022-10-18T04:00:47;21.20;56.90
2749;DHT22;1382;52.142;11.618;2022-10-18T04:03:14;21.20;56.60
2749;DHT22;1382;52.142;11.618;2022-10-18T04:05:41;21.20;56.60
2749;DHT22;1382;52.142;11.618;2022-10-18T04:08:07;21.20;56.50
2749;DHT22;1382;52.142;11.618;2022-10-18T04:10:36;21.20;56.40
2749;DHT22;1382;52.142;11.618;2022-10-18T04:13:03;21.20;56.60
2749;DHT22;1382;52.142;11.618;2022-10-18T04:15:30;21.20;56.70
2749;DHT22;1382;52.142;11.618;2022-10-18T04:17:58;21.10;56.50
2749;DHT22;1382;52.142;11.618;2022-10-18T04:20:26;21.20;56.60
2749;DHT22;1382;52.142;11.618;2022-10-18T04:22:53;21.10;56.40
2749;DHT22;1382;52.142;11.618;2022-10-18T04:25:20;21.10;56.70
2749;DHT22;1382;52.142;11.618;2022-10-18T04:27:47;21.10;56.30
2749;DHT22;1382;52.142;11.618;2022-10-18T04:30:14;21.10;56.10
2749;DHT22;1382;52.142;11.618;2022-10-18T04:32:41;21.10;56.10
2749;DHT22;1382;52.142;11.618;2022-10-18T04:35:10;21.10;56.00
2749;DHT22;1382;52.142;11.618;2022-10-18T04:37:36;21.10;56.30
2749;DHT22;1382;52.142;11.618;2022-10-18T04:40:04;21.00;56.00
2749;DHT22;1382;52.142;11.618;2022-10-18T04:42:31;21.10;56.10
2749;DHT22;1382;52.142;11.618;2022-10-18T04:44:58;21.00;56.00
2749;DHT22;1382;52.142;11.618;2022-10-18T04:47:25;21.00;55.80
2749;DHT22;1382;52.142;11.618;2022-10-18T04:49:51;21.00;55.60
2749;DHT22;1382;52.142;11.618;2022-10-18T04:52:19;21.00;55.70
2749;DHT22;1382;52.142;11.618;2022-10-18T04:54:46;21.10;56.20
2749;DHT22;1382;52.142;11.618;2022-10-18T04:57:13;21.00;56.20
2749;DHT22;1382;52.142;11.618;2022-10-18T04:59:40;20.90;56.10
2749;DHT22;1382;52.142;11.618;2022-10-18T05:02:06;21.00;56.40
2749;DHT22;1382;52.142;11.618;2022-10-18T05:04:33;21.00;56.40
2749;DHT22;1382;52.142;11.618;2022-10-18T05:07:00;20.90;56.60
2749;DHT22;1382;52.142;11.618;2022-10-18T05:09:28;20.90;56.60
2749;DHT22;1382;52.142;11.618;2022-10-18T05:11:55;20.90;56.50
2749;DHT22;1382;52.142;11.618;2022-10-18T05:14:22;20.90;56.90
2749;DHT22;1382;52.142;11.618;2022-10-18T05:16:48;20.90;57.50
2749;DHT22;1382;52.142;11.618;2022-10-18T05:19:15;21.00;58.30
2749;DHT22;1382;52.142;11.618;2022-10-18T05:21:42;20.90;58.60
2749;DHT22;1382;52.142;11.618;2022-10-18T05:24:10;20.90;58.40
2749;DHT22;1382;52.142;11.618;2022-10-18T05:26:38;20.80;58.30
2749;DHT22;1382;52.142;11.618;2022-10-18T05:29:05;20.80;58.30
2749;DHT22;1382;52.142;11.618;2022-10-18T05:31:32;20.90;57.80
2749;DHT22;1382;52.142;11.618;2022-10-18T05:33:59;20.90;57.50
2749;DHT22;1382;52.142;11.618;2022-10-18T05:36:26;20.80;57.40
2749;DHT22;1382;52.142;11.618;2022-10-18T05:38:52;20.80;57.60
2749;DHT22;1382;52.142;11.618;2022-10-18T05:41:19;20.80;57.50
2749;DHT22;1382;52.142;11.618;2022-10-18T05:43:47;20.80;57.40
2749;DHT22;1382;52.142;11.618;2022-10-18T05:46:14;20.80;57.40
2749;DHT22;1382;52.142;11.618;2022-10-18T05:48:42;20.80;57.30
2749;DHT22;1382;52.142;11.618;2022-10-18T05:51:09;20.70;57.20
2749;DHT22;1382;52.142;11.618;2022-10-18T05:53:36;20.70;57.30
2749;DHT22;1382;52.142;11.618;2022-10-18T05:56:05;20.70;57.60
2749;DHT22;1382;52.142;11.618;2022-10-18T05:58:32;20.70;57.30
2749;DHT22;1382;52.142;11.618;2022-10-18T06:01:00;20.70;57.60
2749;DHT22;1382;52.142;11.618;2022-10-18T06:03:27;20.70;57.40
2749;DHT22;1382;52.142;11.618;2022-10-18T06:05:58;20.70;57.90
2749;DHT22;1382;52.142;11.618;2022-10-18T06:08:25;20.70;57.90
2749;DHT22;1382;52.142;11.618;2022-10-18T06:10:51;20.70;58.20
2749;DHT22;1382;52.142;11.618;2022-10-18T06:13:18;20.70;58.30
2749;DHT22;1382;52.142;11.618;2022-10-18T06:15:45;20.70;58.60
2749;DHT22;1382;52.142;11.618;2022-10-18T06:18:13;20.70;58.90
2749;DHT22;1382;52.142;11.618;2022-10-18T06:20:40;20.70;59.10
2749;DHT22;1382;52.142;11.618;2022-10-18T06:23:07;20.80;59.00
2749;DHT22;1382;52.142;11.618;2022-10-18T06:25:34;20.70;59.60
2749;DHT22;1382;52.142;11.618;2022-10-18T06:28:03;20.80;59.60
2749;DHT22;1382;52.142;11.618;2022-10-18T06:30:33;20.50;59.60
2749;DHT22;1382;52.142;11.618;2022-10-18T06:33:00;20.50;59.50
2749;DHT22;1382;52.142;11.618;2022-10-18T06:35:29;20.60;59.00
2749;DHT22;1382;52.142;11.618;2022-10-18T06:37:57;20.50;58.80
2749;DHT22;1382;52.142;11.618;2022-10-18T06:40:25;20.70;58.50
2749;DHT22;1382;52.142;11.618;2022-10-18T06:42:52;20.60;58.10
2749;DHT22;1382;52.142;11.618;2022-10-18T06:45:31;20.60;58.10
2749;DHT22;1382;52.142;11.618;2022-10-18T06:47:58;20.70;58.10
2749;DHT22;1382;52.142;11.618;2022-10-18T06:50:25;20.40;57.40
2749;DHT22;1382;52.142;11.618;2022-10-18T06:52:54;20.60;57.40
2749;DHT22;1382;52.142;11.618;2022-10-18T06:55:21;20.60;57.80
2749;DHT22;1382;52.142;11.618;2022-10-18T06:57:47;20.50;58.00
2749;DHT22;1382;52.142;11.618;2022-10-18T07:00:15;20.50;58.20
2749;DHT22;1382;52.142;11.618;2022-10-18T07:02:42;20.50;58.10
2749;DHT22;1382;52.142;11.618;2022-10-18T07:05:10;20.50;58.20
2749;DHT22;1382;52.142;11.618;2022-10-18T07:07:37;20.60;58.30
2749;DHT22;1382;52.142;11.618;2022-10-18T07:10:06;20.50;58.00
2749;DHT22;1382;52.142;11.618;2022-10-18T07:12:39;20.50;58.40
2749;DHT22;1382;52.142;11.618;2022-10-18T07:15:06;20.50;58.20
2749;DHT22;1382;52.142;11.618;2022-10-18T07:17:35;20.40;58.30
2749;DHT22;1382;52.142;11.618;2022-10-18T07:20:02;20.60;58.40
2749;DHT22;1382;52.142;11.618;2022-10-18T07:22:30;20.40;58.30
2749;DHT22;1382;52.142;11.618;2022-10-18T07:24:57;20.50;58.10
2749;DHT22;1382;52.142;11.618;2022-10-18T07:27:25;20.50;57.70
2749;DHT22;1382;52.142;11.618;2022-10-18T07:29:52;20.50;57.70
2749;DHT22;1382;52.142;11.618;2022-10-18T07:32:19;20.40;57.50
2749;DHT22;1382;52.142;11.618;2022-10-18T07:34:46;20.40;57.40
2749;DHT22;1382;52.142;11.618;2022-10-18T07:37:12;20.40;56.90
2749;DHT22;1382;52.142;11.618;2022-10-18T07:39:39;20.40;56.90
2749;DHT22;1382;52.142;11.618;2022-10-18T07:42:06;20.40;56.90
2749;DHT22;1382;52.142;11.618;2022-10-18T07:44:34;20.40;57.30
2749;DHT22;1382;52.142;11.618;2022-10-18T07:47:01;20.60;57.50
2749;DHT22;1382;52.142;11.618;2022-10-18T07:49:28;20.40;56.80
2749;DHT22;1382;52.142;11.618;2022-10-18T07:51:54;20.40;56.90
2749;DHT22;1382;52.142;11.618;2022-10-18T07:54:21;20.40;57.40
2749;DHT22;1382;52.142;11.618;2022-10-18T07:56:48;20.40;57.80
2749;DHT22;1382;52.142;11.618;2022-10-18T07:59:15;20.40;57.80
2749;DHT22;1382;52.142;11.618;2022-10-18T08:01:43;20.60;58.00
2749;DHT22;1382;52.142;11.618;2022-10-18T08:04:10;20.40;57.50
2749;DHT22;1382;52.142;11.618;2022-10-18T08:06:42;20.40;57.40
2749;DHT22;1382;52.142;11.618;2022-10-18T08:09:09;20.40;57.50
2749;DHT22;1382;52.142;11.618;2022-10-18T08:11:35;20.40;58.00
2749;DHT22;1382;52.142;11.618;2022-10-18T08:14:02;20.50;57.80
2749;DHT22;1382;52.142;11.618;2022-10-18T08:16:29;20.40;58.20
2749;DHT22;1382;52.142;11.618;2022-10-18T08:18:58;20.60;58.30
2749;DHT22;1382;52.142;11.618;2022-10-18T08:21:25;20.40;58.40
2749;DHT22;1382;52.142;11.618;2022-10-18T08:23:52;20.50;58.90
2749;DHT22;1382;52.142;11.618;2022-10-18T08:26:20;20.50;59.50
2749;DHT22;1382;52.142;11.618;2022-10-18T08:28:48;20.40;59.40
2749;DHT22;1382;52.142;11.618;2022-10-18T08:31:35;20.40;59.60
2749;DHT22;1382;52.142;11.618;2022-10-18T08:34:03;20.40;59.20
2749;DHT22;1382;52.142;11.618;2022-10-18T08:36:30;20.50;59.70
2749;DHT22;1382;52.142;11.618;2022-10-18T08:38:56;20.50;59.60
2749;DHT22;1382;52.142;11.618;2022-10-18T08:41:41;20.50;59.60
2749;DHT22;1382;52.142;11.618;2022-10-18T08:44:15;20.50;59.40
2749;DHT22;1382;52.142;11.618;2022-10-18T08:46:45;20.40;58.90
2749;DHT22;1382;52.142;11.618;2022-10-18T08:49:21;20.50;58.60
2749;DHT22;1382;52.142;11.618;2022-10-18T08:51:50;20.40;58.70
2749;DHT22;1382;52.142;11.618;2022-10-18T08:54:23;20.40;58.50
2749;DHT22;1382;52.142;11.618;2022-10-18T08:56:57;20.60;59.10
2749;DHT22;1382;52.142;11.618;2022-10-18T08:59:24;20.50;58.90
2749;DHT22;1382;52.142;11.618;2022-10-18T09:01:59;20.40;58.70
2749;DHT22;1382;52.142;11.618;2022-10-18T09:04:39;20.40;58.80
2749;DHT22;1382;52.142;11.618;2022-10-18T09:07:27;20.50;58.50
2749;DHT22;1382;52.142;11.618;2022-10-18T09:10:00;20.50;58.10
2749;DHT22;1382;52.142;11.618;2022-10-18T09:12:50;20.50;58.60
2749;DHT22;1382;52.142;11.618;2022-10-18T09:15:24;20.50;58.20
2749;DHT22;1382;52.142;11.618;2022-10-18T09:18:07;20.50;58.20
2749;DHT22;1382;52.142;11.618;2022-10-18T09:20:47;20.40;58.10
2749;DHT22;1382;52.142;11.618;2022-10-18T09:23:18;20.40;57.80
2749;DHT22;1382;52.142;11.618;2022-10-18T09:25:46;20.50;58.00
2749;DHT22;1382;52.142;11.618;2022-10-18T09:28:18;20.40;58.30
2749;DHT22;1382;52.142;11.618;2022-10-18T09:30:53;20.50;58.70
2749;DHT22;1382;52.142;11.618;2022-10-18T09:33:32;20.50;58.30
2749;DHT22;1382;52.142;11.618;2022-10-18T09:36:04;20.50;58.60
2749;DHT22;1382;52.142;11.618;2022-10-18T09:38:36;20.50;58.40
2749;DHT22;1382;52.142;11.618;2022-10-18T09:41:09;20.50;58.50
2749;DHT22;1382;52.142;11.618;2022-10-18T09:43:46;20.60;58.90
2749;DHT22;1382;52.142;11.618;2022-10-18T09:46:13;20.50;58.90
2749;DHT22;1382;52.142;11.618;2022-10-18T09:48:45;20.60;58.80
2749;DHT22;1382;52.142;11.618;2022-10-18T09:51:16;20.60;60.00
2749;DHT22;1382;52.142;11.618;2022-10-18T09:53:46;20.70;60.00
2749;DHT22;1382;52.142;11.618;2022-10-18T09:56:17;20.60;59.80
2749;DHT22;1382;52.142;11.618;2022-10-18T09:58:49;20.60;60.60
2749;DHT22;1382;52.142;11.618;2022-10-18T10:01:19;20.70;61.00
2749;DHT22;1382;52.142;11.618;2022-10-18T10:03:47;20.60;61.90
2749;DHT22;1382;52.142;11.618;2022-10-18T10:06:22;20.60;61.80
2749;DHT22;1382;52.142;11.618;2022-10-18T10:08:53;20.60;61.50
2749;DHT22;1382;52.142;11.618;2022-10-18T10:11:30;20.60;61.70
2749;DHT22;1382;52.142;11.618;2022-10-18T10:14:06;20.70;61.90
2749;DHT22;1382;52.142;11.618;2022-10-18T10:16:42;20.60;61.80
2749;DHT22;1382;52.142;11.618;2022-10-18T10:19:18;20.60;61.90
2749;DHT22;1382;52.142;11.618;2022-10-18T10:21:48;20.60;62.80
2749;DHT22;1382;52.142;11.618;2022-10-18T10:24:22;20.60;62.90
2749;DHT22;1382;52.142;11.618;2022-10-18T10:27:01;20.60;62.90
2749;DHT22;1382;52.142;11.618;2022-10-18T10:29:48;20.60;63.30
2749;DHT22;1382;52.142;11.618;2022-10-18T10:32:17;20.60;61.90
2749;DHT22;1382;52.142;11.618;2022-10-18T10:34:45;20.60;62.30
2749;DHT22;1382;52.142;11.618;2022-10-18T10:37:31;20.50;62.70
2749;DHT22;1382;52.142;11.618;2022-10-18T10:40:12;20.60;62.70
2749;DHT22;1382;52.142;11.618;2022-10-18T10:43:03;20.60;63.10
2749;DHT22;1382;52.142;11.618;2022-10-18T10:46:23;20.70;63.20
2749;DHT22;1382;52.142;11.618;2022-10-18T10:49:18;20.70;63.50
2749;DHT22;1382;52.142;11.618;2022-10-18T10:52:06;20.70;63.80
2749;DHT22;1382;52.142;11.618;2022-10-18T10:54:53;20.50;63.20
2749;DHT22;1382;52.142;11.618;2022-10-18T10:57:37;20.60;63.20
2749;DHT22;1382;52.142;11.618;2022-10-18T11:00:05;20.60;63.20
2749;DHT22;1382;52.142;11.618;2022-10-18T11:02:33;20.70;62.90
2749;DHT22;1382;52.142;11.618;2022-10-18T11:05:18;20.80;63.00
2749;DHT22;1382;52.142;11.618;2022-10-18T11:07:48;20.70;63.10
2749;DHT22;1382;52.142;11.618;2022-10-18T11:10:20;20.70;63.70
2749;DHT22;1382;52.142;11.618;2022-10-18T11:13:02;20.80;63.80
2749;DHT22;1382;52.142;11.618;2022-10-18T11:15:37;21.00;63.50
2749;DHT22;1382;52.142;11.618;2022-10-18T11:18:32;20.70;63.10
2749;DHT22;1382;52.142;11.618;2022-10-18T11:21:02;20.80;63.40
2749;DHT22;1382;52.142;11.618;2022-10-18T11:23:36;21.00;63.50
2749;DHT22;1382;52.142;11.618;2022-10-18T11:29:46;20.90;62.00
2749;DHT22;1382;52.142;11.618;2022-10-18T11:32:28;20.90;62.10
2749;DHT22;1382;52.142;11.618;2022-10-18T11:42:23;21.00;61.80
2749;DHT22;1382;52.142;11.618;2022-10-18T11:48:25;21.00;62.40
2749;DHT22;1382;52.142;11.618;2022-10-18T11:51:06;21.10;62.60
2749;DHT22;1382;52.142;11.618;2022-10-18T12:03:57;21.00;62.30
2749;DHT22;1382;52.142;11.618;2022-10-18T12:06:35;21.10;62.50
2749;DHT22;1382;52.142;11.618;2022-10-18T12:13:02;21.10;62.10
2749;DHT22;1382;52.142;11.618;2022-10-18T12:15:55;21.10;63.20
2749;DHT22;1382;52.142;11.618;2022-10-18T12:18:26;21.10;62.90
2749;DHT22;1382;52.142;11.618;2022-10-18T12:27:59;21.30;62.50
2749;DHT22;1382;52.142;11.618;2022-10-18T12:37:19;21.40;61.90
2749;DHT22;1382;52.142;11.618;2022-10-18T12:39:53;21.50;61.70
2749;DHT22;1382;52.142;11.618;2022-10-18T12:42:49;21.40;61.60
2749;DHT22;1382;52.142;11.618;2022-10-18T12:45:53;21.50;61.50
2749;DHT22;1382;52.142;11.618;2022-10-18T12:49:00;21.50;61.50
2749;DHT22;1382;52.142;11.618;2022-10-18T12:51:32;21.60;60.90
2749;DHT22;1382;52.142;11.618;2022-10-18T12:54:11;21.50;61.30
2749;DHT22;1382;52.142;11.618;2022-10-18T12:56:44;21.60;61.40
2749;DHT22;1382;52.142;11.618;2022-10-18T12:59:50;21.60;61.20
2749;DHT22;1382;52.142;11.618;2022-10-18T13:06:03;21.80;60.60
2749;DHT22;1382;52.142;11.618;2022-10-18T13:08:46;21.70;61.20
2749;DHT22;1382;52.142;11.618;2022-10-18T13:11:33;21.80;61.00
2749;DHT22;1382;52.142;11.618;2022-10-18T13:14:45;21.70;60.80
2749;DHT22;1382;52.142;11.618;2022-10-18T13:18:19;21.70;59.80
2749;DHT22;1382;52.142;11.618;2022-10-18T13:20:55;21.90;61.40
2749;DHT22;1382;52.142;11.618;2022-10-18T13:23:33;21.90;60.00
2749;DHT22;1382;52.142;11.618;2022-10-18T13:26:13;21.90;59.20
2749;DHT22;1382;52.142;11.618;2022-10-18T13:28:48;21.80;58.40
2749;DHT22;1382;52.142;11.618;2022-10-18T13:31:21;21.80;58.40
2749;DHT22;1382;52.142;11.618;2022-10-18T13:33:49;21.80;58.40
2749;DHT22;1382;52.142;11.618;2022-10-18T13:36:21;21.80;58.40
2749;DHT22;1382;52.142;11.618;2022-10-18T13:38:59;21.90;58.30
2749;DHT22;1382;52.142;11.618;2022-10-18T13:41:28;22.00;58.30
2749;DHT22;1382;52.142;11.618;2022-10-18T13:44:23;21.90;58.40
2749;DHT22;1382;52.142;11.618;2022-10-18T13:47:31;22.00;58.50
2749;DHT22;1382;52.142;11.618;2022-10-18T13:50:33;22.00;58.00
2749;DHT22;1382;52.142;11.618;2022-10-18T13:53:37;22.00;58.00
2749;DHT22;1382;52.142;11.618;2022-10-18T13:59:24;21.90;57.70
2749;DHT22;1382;52.142;11.618;2022-10-18T14:02:12;22.10;57.30
2749;DHT22;1382;52.142;11.618;2022-10-18T14:04:53;21.90;57.10
2749;DHT22;1382;52.142;11.618;2022-10-18T14:07:48;21.80;57.30
2749;DHT22;1382;52.142;11.618;2022-10-18T14:10:22;21.80;57.00
2749;DHT22;1382;52.142;11.618;2022-10-18T14:13:03;21.80;56.30
2749;DHT22;1382;52.142;11.618;2022-10-18T14:15:35;21.80;56.40
2749;DHT22;1382;52.142;11.618;2022-10-18T14:18:12;21.80;56.20
2749;DHT22;1382;52.142;11.618;2022-10-18T14:20:42;21.80;56.20
2749;DHT22;1382;52.142;11.618;2022-10-18T14:23:34;21.70;56.20
2749;DHT22;1382;52.142;11.618;2022-10-18T14:26:10;21.70;55.90
2749;DHT22;1382;52.142;11.618;2022-10-18T14:28:38;21.70;56.00
2749;DHT22;1382;52.142;11.618;2022-10-18T14:31:25;21.70;56.30
2749;DHT22;1382;52.142;11.618;2022-10-18T14:33:53;21.70;56.60
2749;DHT22;1382;52.142;11.618;2022-10-18T14:36:25;21.70;56.10
2749;DHT22;1382;52.142;11.618;2022-10-18T14:38:55;21.60;55.90
2749;DHT22;1382;52.142;11.618;2022-10-18T14:41:23;21.60;55.40
2749;DHT22;1382;52.142;11.618;2022-10-18T14:43:52;21.70;55.50
2749;DHT22;1382;52.142;11.618;2022-10-18T14:46:21;21.60;55.20
2749;DHT22;1382;52.142;11.618;2022-10-18T14:48:52;21.50;55.00
2749;DHT22;1382;52.142;11.618;2022-10-18T14:51:20;21.50;55.10
2749;DHT22;1382;52.142;11.618;2022-10-18T14:53:47;21.60;55.40
2749;DHT22;1382;52.142;11.618;2022-10-18T14:56:23;21.50;55.10
2749;DHT22;1382;52.142;11.618;2022-10-18T14:58:51;21.50;55.40
2749;DHT22;1382;52.142;11.618;2022-10-18T15:01:20;21.50;55.60
2749;DHT22;1382;52.142;11.618;2022-10-18T15:03:49;21.50;55.40
2749;DHT22;1382;52.142;11.618;2022-10-18T15:06:18;21.60;55.60
2749;DHT22;1382;52.142;11.618;2022-10-18T15:08:48;21.60;55.20
2749;DHT22;1382;52.142;11.618;2022-10-18T15:11:16;21.70;55.30
2749;DHT22;1382;52.142;11.618;2022-10-18T15:13:49;21.60;55.30
2749;DHT22;1382;52.142;11.618;2022-10-18T15:16:18;21.60;55.30
2749;DHT22;1382;52.142;11.618;2022-10-18T15:19:02;21.60;55.30
2749;DHT22;1382;52.142;11.618;2022-10-18T15:21:29;21.70;55.20
2749;DHT22;1382;52.142;11.618;2022-10-18T15:24:18;21.60;55.40
2749;DHT22;1382;52.142;11.618;2022-10-18T15:26:45;21.70;55.30
2749;DHT22;1382;52.142;11.618;2022-10-18T15:29:17;21.60;55.40
2749;DHT22;1382;52.142;11.618;2022-10-18T15:31:45;21.70;55.40
2749;DHT22;1382;52.142;11.618;2022-10-18T15:34:18;21.60;55.30
2749;DHT22;1382;52.142;11.618;2022-10-18T15:36:46;21.60;55.20
2749;DHT22;1382;52.142;11.618;2022-10-18T15:39:15;21.60;55.30
2749;DHT22;1382;52.142;11.618;2022-10-18T15:41:46;21.60;55.00
2749;DHT22;1382;52.142;11.618;2022-10-18T15:44:21;21.40;55.00
2749;DHT22;1382;52.142;11.618;2022-10-18T15:46:49;21.40;55.10
2749;DHT22;1382;52.142;11.618;2022-10-18T15:49:46;21.40;55.10
2749;DHT22;1382;52.142;11.618;2022-10-18T15:52:28;21.50;54.90
2749;DHT22;1382;52.142;11.618;2022-10-18T15:58:03;21.30;54.30
2749;DHT22;1382;52.142;11.618;2022-10-18T16:00:31;21.20;54.20
2749;DHT22;1382;52.142;11.618;2022-10-18T16:02:58;21.30;54.30
2749;DHT22;1382;52.142;11.618;2022-10-18T16:05:25;21.30;54.00
2749;DHT22;1382;52.142;11.618;2022-10-18T16:07:52;21.20;53.90
2749;DHT22;1382;52.142;11.618;2022-10-18T16:10:19;21.40;54.10
2749;DHT22;1382;52.142;11.618;2022-10-18T16:12:46;21.30;53.90
2749;DHT22;1382;52.142;11.618;2022-10-18T16:15:13;21.20;53.80
2749;DHT22;1382;52.142;11.618;2022-10-18T16:17:41;21.20;53.80
2749;DHT22;1382;52.142;11.618;2022-10-18T16:20:17;21.20;53.70
2749;DHT22;1382;52.142;11.618;2022-10-18T16:22:44;21.20;53.50
2749;DHT22;1382;52.142;11.618;2022-10-18T16:25:11;21.10;53.60
2749;DHT22;1382;52.142;11.618;2022-10-18T16:27:38;21.30;53.80
2749;DHT22;1382;52.142;11.618;2022-10-18T16:30:10;21.10;53.70
2749;DHT22;1382;52.142;11.618;2022-10-18T16:32:38;21.10;53.60
2749;DHT22;1382;52.142;11.618;2022-10-18T16:35:07;21.00;53.60
2749;DHT22;1382;52.142;11.618;2022-10-18T16:37:34;21.00;53.60
2749;DHT22;1382;52.142;11.618;2022-10-18T16:40:04;20.90;53.50
2749;DHT22;1382;52.142;11.618;2022-10-18T16:42:39;20.90;53.40
2749;DHT22;1382;52.142;11.618;2022-10-18T16:45:06;20.90;53.50
2749;DHT22;1382;52.142;11.618;2022-10-18T16:47:33;20.80;53.30
2749;DHT22;1382;52.142;11.618;2022-10-18T16:50:00;20.90;53.30
2749;DHT22;1382;52.142;11.618;2022-10-18T16:52:33;20.80;53.30
2749;DHT22;1382;52.142;11.618;2022-10-18T16:55:01;20.60;53.20
2749;DHT22;1382;52.142;11.618;2022-10-18T16:57:27;20.60;53.20
2749;DHT22;1382;52.142;11.618;2022-10-18T16:59:54;20.60;53.30
2749;DHT22;1382;52.142;11.618;2022-10-18T17:02:21;20.50;53.20
2749;DHT22;1382;52.142;11.618;2022-10-18T17:04:48;20.40;53.10
2749;DHT22;1382;52.142;11.618;2022-10-18T17:07:21;20.40;53.10